createdAt,value
2023-04-15T00:00:31.885Z,99281.91
2023-04-15T00:03:35.738Z,99271.69
2023-04-15T00:06:40.089Z,99285.19
2023-04-15T00:09:44.923Z,99282.50
2023-04-15T00:12:48.027Z,99280.63
2023-04-15T00:15:51.299Z,99289.72
2023-04-15T00:18:54.577Z,99277.75
2023-04-15T00:21:57.673Z,99286.94
2023-04-15T00:25:01.202Z,99284.72
2023-04-15T00:28:04.440Z,99280.09
2023-04-15T00:31:07.881Z,99287.81
2023-04-15T00:34:10.948Z,99282.16
2023-04-15T00:37:14.239Z,99285.63
2023-04-15T00:40:19.883Z,99284.84
2023-04-15T00:43:23.363Z,99286.03
2023-04-15T00:46:28.985Z,99284.03
2023-04-15T00:49:32.385Z,99287.69
2023-04-15T00:52:36.298Z,99294.22
2023-04-15T00:55:40.484Z,99285.03
2023-04-15T00:58:43.591Z,99291.25
2023-04-15T01:01:48.675Z,99289.59
2023-04-15T01:04:52.198Z,99292.94
2023-04-15T01:07:56.345Z,99293.19
2023-04-15T01:11:03.730Z,99291.03
2023-04-15T01:14:09.124Z,99288.31
2023-04-15T01:17:13.372Z,99284.72
2023-04-15T01:20:17.262Z,99303.06
2023-04-15T01:23:22.183Z,99298.97
2023-04-15T01:26:25.985Z,99293.53
2023-04-15T01:29:29.920Z,99293.44
2023-04-15T01:32:33.269Z,99296.66
2023-04-15T01:35:55.066Z,99293.34
2023-04-15T01:39:02.209Z,99300.63
2023-04-15T01:42:05.326Z,99293.91
2023-04-15T01:45:10.264Z,99299.16
2023-04-15T01:48:15.925Z,99294.94
2023-04-15T01:51:20.449Z,99294.91
2023-04-15T01:54:27.815Z,99302.28
2023-04-15T01:57:32.394Z,99309.19
2023-04-15T02:00:37.000Z,99314.59
2023-04-15T02:03:41.718Z,99316.81
2023-04-15T02:06:46.552Z,99313.41
2023-04-15T02:09:52.026Z,99314.94
2023-04-15T02:12:56.584Z,99320.81
2023-04-15T02:16:05.405Z,99316.84
2023-04-15T02:19:10.209Z,99324.66
2023-04-15T02:22:18.886Z,99319.13
2023-04-15T02:25:24.354Z,99321.03
2023-04-15T02:28:28.920Z,99314.91
2023-04-15T02:31:37.210Z,99321.00
2023-04-15T02:34:42.863Z,99317.84
2023-04-15T02:37:47.976Z,99314.09
2023-04-15T02:40:52.817Z,99308.72
2023-04-15T02:43:57.486Z,99312.13
2023-04-15T02:47:01.814Z,99315.13
2023-04-15T02:50:09.615Z,99307.91
2023-04-15T02:53:14.876Z,99308.28
2023-04-15T02:56:20.069Z,99302.47
2023-04-15T02:59:25.456Z,99308.28
2023-04-15T03:02:35.700Z,99307.44
2023-04-15T03:05:41.119Z,99301.31
2023-04-15T03:08:45.982Z,99302.28
2023-04-15T03:11:53.546Z,99286.25
2023-04-15T03:14:58.737Z,99293.88
2023-04-15T03:18:10.952Z,99290.13
2023-04-15T03:21:15.101Z,99286.94
2023-04-15T03:24:19.197Z,99283.91
2023-04-15T03:27:24.518Z,99285.22
2023-04-15T03:30:30.825Z,99296.34
2023-04-15T03:33:35.216Z,99290.53
2023-04-15T03:36:39.864Z,99293.19
2023-04-15T03:39:44.520Z,99299.44
2023-04-15T03:42:49.306Z,99296.47
2023-04-15T03:45:53.413Z,99301.00
2023-04-15T03:48:57.497Z,99291.31
2023-04-15T03:52:01.704Z,99299.41
2023-04-15T03:55:06.062Z,99297.47
2023-04-15T03:58:12.991Z,99298.53
2023-04-15T04:01:17.644Z,99292.41
2023-04-15T04:04:22.088Z,99300.75
2023-04-15T04:07:26.516Z,99306.56
2023-04-15T04:10:31.225Z,99313.34
2023-04-15T04:13:35.649Z,99310.03
2023-04-15T04:16:40.290Z,99310.16
2023-04-15T04:19:44.534Z,99308.03
2023-04-15T04:22:48.944Z,99310.84
2023-04-15T04:25:53.661Z,99306.22
2023-04-15T04:28:57.866Z,99300.81
2023-04-15T04:32:02.256Z,99313.03
2023-04-15T04:35:07.382Z,99307.63
2023-04-15T04:38:12.099Z,99298.81
2023-04-15T04:41:16.591Z,99313.72
2023-04-15T04:44:20.969Z,99312.91
2023-04-15T04:47:25.277Z,99313.66
2023-04-15T04:50:29.722Z,99308.28
2023-04-15T04:53:34.074Z,99313.66
2023-04-15T04:56:39.818Z,99310.19
2023-04-15T04:59:44.238Z,99319.34
2023-04-15T05:02:48.929Z,99317.75
2023-04-15T05:05:53.578Z,99321.59
2023-04-15T05:08:58.263Z,99311.25
2023-04-15T05:12:04.217Z,99321.09
2023-04-15T05:15:09.089Z,99316.47
2023-04-15T05:18:13.430Z,99316.50
2023-04-15T05:21:17.939Z,99307.88
2023-04-15T05:24:22.680Z,99310.19
2023-04-15T05:27:27.287Z,99313.56
2023-04-15T05:30:32.025Z,99313.97
2023-04-15T05:33:37.206Z,99321.63
2023-04-15T05:36:41.427Z,99329.25
2023-04-15T05:39:46.014Z,99324.13
2023-04-15T05:42:51.422Z,99318.84
2023-04-15T05:45:55.809Z,99326.88
2023-04-15T05:49:00.966Z,99327.59
2023-04-15T05:52:05.996Z,99331.53
2023-04-15T05:55:10.400Z,99327.59
2023-04-15T05:58:14.752Z,99333.25
2023-04-15T06:01:19.491Z,99343.25
2023-04-15T06:04:24.350Z,99348.66
2023-04-15T06:07:28.748Z,99340.75
2023-04-15T06:10:36.812Z,99345.06
2023-04-15T06:13:41.675Z,99341.13
2023-04-15T06:16:46.062Z,99345.41
2023-04-15T06:19:55.505Z,99346.00
2023-04-15T06:22:59.771Z,99352.31
2023-04-15T06:26:03.909Z,99352.97
2023-04-15T06:29:08.520Z,99350.47
2023-04-15T06:32:13.163Z,99358.00
2023-04-15T06:35:17.930Z,99358.59
2023-04-15T06:38:22.173Z,99358.84
2023-04-15T06:41:26.490Z,99358.59
2023-04-15T06:44:33.290Z,99355.09
2023-04-15T06:47:38.429Z,99364.56
2023-04-15T06:50:42.981Z,99364.88
2023-04-15T06:53:47.595Z,99364.56
2023-04-15T06:56:52.543Z,99376.19
2023-04-15T06:59:56.888Z,99379.03
2023-04-15T07:03:03.852Z,99370.50
2023-04-15T07:06:09.560Z,99377.72
2023-04-15T07:09:13.804Z,99381.56
2023-04-15T07:12:18.547Z,99376.97
2023-04-15T07:15:23.620Z,99384.69
2023-04-15T07:18:28.238Z,99387.03
2023-04-15T07:21:32.822Z,99386.13
2023-04-15T07:24:37.092Z,99390.09
2023-04-15T07:27:41.809Z,99396.25
2023-04-15T07:30:46.503Z,99398.88
2023-04-15T07:33:51.541Z,99398.66
2023-04-15T07:36:56.165Z,99398.59
2023-04-15T07:40:00.599Z,99398.81
2023-04-15T07:43:05.847Z,99400.31
2023-04-15T07:46:10.605Z,99405.19
2023-04-15T07:49:15.992Z,99403.84
2023-04-15T07:52:20.530Z,99407.19
2023-04-15T07:55:26.186Z,99407.19
2023-04-15T07:58:31.804Z,99412.53
2023-04-15T08:01:37.000Z,99409.22
2023-04-15T08:04:41.927Z,99412.94
2023-04-15T08:07:46.972Z,99413.25
2023-04-15T08:10:52.963Z,99411.34
2023-04-15T08:14:00.522Z,99414.50
2023-04-15T08:17:04.737Z,99422.56
2023-04-15T08:20:10.472Z,99418.59
2023-04-15T08:23:14.907Z,99425.38
2023-04-15T08:26:20.092Z,99425.81
2023-04-15T08:29:24.774Z,99431.00
2023-04-15T08:32:29.221Z,99434.63
2023-04-15T08:35:33.595Z,99435.63
2023-04-15T08:38:37.895Z,99432.34
2023-04-15T08:41:55.485Z,99442.50
2023-04-15T08:45:01.973Z,99439.31
2023-04-15T08:48:07.812Z,99440.06
2023-04-15T08:51:16.193Z,99452.91
2023-04-15T08:54:20.967Z,99460.06
2023-04-15T08:57:29.330Z,99457.69
2023-04-15T09:00:34.270Z,99451.59
2023-04-15T09:03:39.834Z,99454.63
2023-04-15T09:06:44.591Z,99453.69
2023-04-15T09:09:49.587Z,99460.97
2023-04-15T09:12:54.200Z,99459.75
2023-04-15T09:15:58.960Z,99464.41
2023-04-15T09:19:21.774Z,99475.81
2023-04-15T09:22:32.479Z,99465.50
2023-04-15T09:25:37.180Z,99465.28
2023-04-15T09:28:43.710Z,99466.28
2023-04-15T09:31:48.218Z,99468.78
2023-04-15T09:34:52.619Z,99467.50
2023-04-15T09:38:05.967Z,99461.59
2023-04-15T09:41:20.800Z,99475.06
2023-04-15T09:44:26.904Z,99464.78
2023-04-15T09:47:32.548Z,99473.19
2023-04-15T09:50:41.712Z,99474.75
2023-04-15T09:53:45.999Z,99479.16
2023-04-15T09:56:50.654Z,99480.34
2023-04-15T09:59:55.225Z,99477.72
2023-04-15T10:02:59.764Z,99476.78
2023-04-15T10:06:05.836Z,99478.38
2023-04-15T10:09:10.323Z,99477.63
2023-04-15T10:12:17.757Z,99488.09
2023-04-15T10:15:23.500Z,99486.91
2023-04-15T10:18:38.196Z,99487.13
2023-04-15T10:21:42.971Z,99483.59
2023-04-15T10:24:49.212Z,99482.44
2023-04-15T10:27:53.804Z,99489.75
2023-04-15T10:30:59.571Z,99483.56
2023-04-15T10:34:06.675Z,99480.59
2023-04-15T10:37:13.937Z,99476.09
2023-04-15T10:40:25.537Z,99478.59
2023-04-15T10:43:29.911Z,99492.53
2023-04-15T10:46:41.392Z,99484.81
2023-04-15T10:49:56.937Z,99483.63
2023-04-15T10:53:04.906Z,99479.09
2023-04-15T10:56:10.631Z,99483.69
2023-04-15T10:59:16.582Z,99479.34
2023-04-15T11:02:21.666Z,99474.34
2023-04-15T11:05:41.566Z,99472.22
2023-04-15T11:08:56.804Z,99476.50
2023-04-15T11:12:10.616Z,99477.75
2023-04-15T11:15:45.106Z,99477.31
2023-04-15T11:18:56.576Z,99471.31
2023-04-15T11:22:08.222Z,99476.44
2023-04-15T11:25:26.404Z,99477.16
2023-04-15T11:28:32.821Z,99477.16
2023-04-15T11:31:37.790Z,99475.94
2023-04-15T11:34:46.297Z,99476.53
2023-04-15T11:37:51.630Z,99472.53
2023-04-15T11:40:55.852Z,99479.22
2023-04-15T11:44:00.536Z,99472.03
2023-04-15T11:47:23.539Z,99480.41
2023-04-15T11:50:27.950Z,99483.97
2023-04-15T11:53:47.994Z,99480.44
2023-04-15T11:56:53.035Z,99485.25
2023-04-15T11:59:56.251Z,99488.56
2023-04-15T12:03:19.732Z,99496.63
2023-04-15T12:06:32.872Z,99495.00
2023-04-15T12:09:40.075Z,99493.97
2023-04-15T12:12:43.554Z,99491.66
2023-04-15T12:15:50.389Z,99494.97
2023-04-15T12:19:00.976Z,99495.63
2023-04-15T12:22:16.010Z,99489.06
2023-04-15T12:25:19.288Z,99496.56
2023-04-15T12:28:22.224Z,99490.75
2023-04-15T12:31:25.968Z,99506.75
2023-04-15T12:34:32.304Z,99501.50
2023-04-15T12:37:35.806Z,99511.03
2023-04-15T12:40:38.946Z,99509.75
2023-04-15T12:43:44.587Z,99508.28
2023-04-15T12:46:47.964Z,99517.91
2023-04-15T12:49:51.016Z,99507.34
2023-04-15T12:52:54.538Z,99515.97
2023-04-15T12:55:57.656Z,99532.47
2023-04-15T12:59:00.937Z,99531.56
2023-04-15T13:02:04.584Z,99540.81
2023-04-15T13:05:08.262Z,99542.19
2023-04-15T13:08:11.447Z,99543.22
2023-04-15T13:11:14.599Z,99540.84
2023-04-15T13:14:17.998Z,99550.59
2023-04-15T13:17:22.214Z,99554.25
2023-04-15T13:20:26.997Z,99558.59
2023-04-15T13:23:30.079Z,99547.72
2023-04-15T13:26:33.204Z,99551.56
2023-04-15T13:29:36.338Z,99550.34
2023-04-15T13:32:39.516Z,99544.75
2023-04-15T13:35:42.451Z,99544.66
2023-04-15T13:38:45.612Z,99554.06
2023-04-15T13:41:49.383Z,99549.38
2023-04-15T13:44:52.466Z,99554.34
2023-04-15T13:47:57.271Z,99564.72
2023-04-15T13:51:00.394Z,99559.84
2023-04-15T13:54:04.281Z,99561.41
2023-04-15T13:57:07.928Z,99564.06
2023-04-15T14:00:12.074Z,99572.56
2023-04-15T14:03:15.463Z,99571.19
2023-04-15T14:06:18.550Z,99582.13
2023-04-15T14:09:26.263Z,99578.25
2023-04-15T14:12:29.981Z,99583.44
2023-04-15T14:15:33.186Z,99587.22
2023-04-15T14:18:37.492Z,99591.16
2023-04-15T14:21:40.710Z,99597.53
2023-04-15T14:24:44.841Z,99597.72
2023-04-15T14:27:48.648Z,99601.75
2023-04-15T14:30:51.711Z,99604.94
2023-04-15T14:33:55.041Z,99596.25
2023-04-15T14:36:58.531Z,99611.72
2023-04-15T14:40:02.242Z,99621.34
2023-04-15T14:43:05.862Z,99614.22
2023-04-15T14:46:09.358Z,99612.69
2023-04-15T14:49:12.884Z,99619.44
2023-04-15T14:52:16.974Z,99615.09
2023-04-15T14:55:20.532Z,99630.00
2023-04-15T14:58:23.849Z,99624.88
2023-04-15T15:01:27.192Z,99619.88
2023-04-15T15:04:33.628Z,99627.38
2023-04-15T15:07:37.885Z,99630.03
2023-04-15T15:10:49.279Z,99630.78
2023-04-15T15:13:53.585Z,99639.34
2023-04-15T15:16:56.769Z,99645.00
2023-04-15T15:20:00.122Z,99641.06
2023-04-15T15:23:03.233Z,99644.91
2023-04-15T15:26:12.767Z,99647.94
2023-04-15T15:29:15.829Z,99651.84
2023-04-15T15:32:19.318Z,99652.44
2023-04-15T15:35:23.085Z,99665.66
2023-04-15T15:38:26.429Z,99665.69
2023-04-15T15:41:30.159Z,99670.03
2023-04-15T15:44:34.642Z,99668.34
2023-04-15T15:47:38.517Z,99666.31
2023-04-15T15:50:41.768Z,99676.66
2023-04-15T15:53:44.913Z,99670.72
2023-04-15T15:56:48.217Z,99676.47
2023-04-15T16:00:04.914Z,99679.41
2023-04-15T16:03:16.061Z,99688.56
2023-04-15T16:06:19.306Z,99688.47
2023-04-15T16:09:23.043Z,99696.50
2023-04-15T16:12:26.964Z,99698.94
2023-04-15T16:15:30.424Z,99703.56
2023-04-15T16:18:35.372Z,99693.94
2023-04-15T16:21:38.551Z,99701.22
2023-04-15T16:24:41.705Z,99700.06
2023-04-15T16:27:57.805Z,99704.41
2023-04-15T16:31:04.604Z,99711.97
2023-04-15T16:34:07.610Z,99708.56
2023-04-15T16:37:10.698Z,99708.38
2023-04-15T16:40:15.233Z,99719.94
2023-04-15T16:43:18.345Z,99718.44
2023-04-15T16:46:21.704Z,99717.34
2023-04-15T16:49:24.817Z,99722.41
2023-04-15T16:52:29.083Z,99717.16
2023-04-15T16:55:32.262Z,99720.91
2023-04-15T16:58:35.806Z,99724.63
2023-04-15T17:01:39.049Z,99720.22
2023-04-15T17:04:42.247Z,99723.00
2023-04-15T17:07:45.498Z,99723.19
2023-04-15T17:10:49.399Z,99728.44
2023-04-15T17:13:52.967Z,99730.06
2023-04-15T17:16:56.726Z,99732.22
2023-04-15T17:20:00.449Z,99741.81
2023-04-15T17:23:04.370Z,99742.59
2023-04-15T17:26:07.944Z,99744.84
2023-04-15T17:29:11.354Z,99748.34
2023-04-15T17:32:22.904Z,99754.59
2023-04-15T17:35:45.834Z,99749.91
2023-04-15T17:39:09.042Z,99752.81
2023-04-15T17:42:32.415Z,99767.69
2023-04-15T17:45:56.568Z,99766.72
2023-04-15T17:49:21.081Z,99766.22
2023-04-15T17:52:44.334Z,99774.41
2023-04-15T17:56:07.293Z,99778.03
2023-04-15T17:59:30.309Z,99801.47
2023-04-15T18:02:55.325Z,99803.06
2023-04-15T18:06:21.414Z,99807.75
2023-04-15T18:09:44.590Z,99807.84
2023-04-15T18:13:08.136Z,99824.34
2023-04-15T18:16:31.496Z,99832.00
2023-04-15T18:19:54.681Z,99834.28
2023-04-15T18:22:58.331Z,99836.66
2023-04-15T18:26:01.779Z,99855.69
2023-04-15T18:29:05.542Z,99854.06
2023-04-15T18:32:09.794Z,99861.09
2023-04-15T18:35:12.999Z,99867.38
2023-04-15T18:38:16.012Z,99885.59
2023-04-15T18:41:19.861Z,99887.91
2023-04-15T18:44:23.243Z,99890.25
2023-04-15T18:47:27.782Z,99895.66
2023-04-15T18:50:31.603Z,99905.22
2023-04-15T18:53:35.170Z,99912.81
2023-04-15T18:56:39.006Z,99913.22
2023-04-15T18:59:42.727Z,99916.94
2023-04-15T19:02:45.802Z,99926.97
2023-04-15T19:05:49.112Z,99924.31
2023-04-15T19:08:52.298Z,99925.09
2023-04-15T19:11:57.025Z,99927.44
2023-04-15T19:15:00.596Z,99935.56
2023-04-15T19:18:05.461Z,99953.44
2023-04-15T19:21:08.685Z,99946.09
2023-04-15T19:24:12.872Z,99951.28
2023-04-15T19:27:16.274Z,99951.13
2023-04-15T19:30:21.412Z,99948.28
2023-04-15T19:33:27.481Z,99944.78
2023-04-15T19:36:32.118Z,99945.16
2023-04-15T19:39:35.603Z,99960.59
2023-04-15T19:42:38.553Z,99959.53
2023-04-15T19:45:45.891Z,99959.28
2023-04-15T19:48:49.542Z,99973.50
2023-04-15T19:51:53.161Z,99969.97
2023-04-15T19:54:57.197Z,99978.44
2023-04-15T19:58:01.774Z,99973.13
2023-04-15T20:01:05.425Z,99976.66
2023-04-15T20:04:09.059Z,99980.63
2023-04-15T20:07:12.069Z,99975.56
2023-04-15T20:10:15.880Z,99974.84
2023-04-15T20:13:19.453Z,99976.44
2023-04-15T20:16:23.111Z,99970.34
2023-04-15T20:19:26.305Z,99977.28
2023-04-15T20:22:29.836Z,99974.97
2023-04-15T20:25:33.045Z,99966.97
2023-04-15T20:28:36.264Z,99974.03
2023-04-15T20:31:40.600Z,99976.41
2023-04-15T20:34:44.462Z,99978.25
2023-04-15T20:37:49.126Z,99975.75
2023-04-15T20:40:52.563Z,99978.38
2023-04-15T20:43:55.906Z,99973.88
2023-04-15T20:46:59.526Z,99979.63
2023-04-15T20:50:02.896Z,99978.84
2023-04-15T20:53:06.527Z,99976.16
2023-04-15T20:56:09.892Z,99981.97
2023-04-15T20:59:13.192Z,99978.16
2023-04-15T21:02:16.639Z,99992.41
2023-04-15T21:05:21.022Z,99989.31
2023-04-15T21:08:29.417Z,99992.41
2023-04-15T21:11:53.117Z,99992.44
2023-04-15T21:14:56.890Z,99985.00
2023-04-15T21:18:00.316Z,99995.53
2023-04-15T21:21:03.817Z,99994.47
2023-04-15T21:24:10.162Z,99995.69
2023-04-15T21:27:13.284Z,100000.38
2023-04-15T21:30:16.903Z,99995.72
2023-04-15T21:33:20.624Z,99996.63
2023-04-15T21:36:23.933Z,100004.44
2023-04-15T21:39:31.027Z,99997.50
2023-04-15T21:42:34.287Z,100014.19
2023-04-15T21:45:39.671Z,100007.97
2023-04-15T21:48:43.477Z,100008.75
2023-04-15T21:51:47.624Z,100005.34
2023-04-15T21:54:51.065Z,100001.56
2023-04-15T21:57:54.404Z,100005.06
2023-04-15T22:01:00.124Z,100001.97
2023-04-15T22:04:03.497Z,100002.34
2023-04-15T22:07:06.817Z,99999.34
2023-04-15T22:10:10.306Z,100010.97
2023-04-15T22:13:14.336Z,99998.63
2023-04-15T22:16:17.383Z,100007.59
2023-04-15T22:19:20.915Z,100006.44
2023-04-15T22:22:27.100Z,100006.47
2023-04-15T22:25:47.616Z,100016.19
2023-04-15T22:28:51.657Z,100011.22
2023-04-15T22:31:55.304Z,100017.03
2023-04-15T22:34:58.383Z,100032.47
2023-04-15T22:38:01.620Z,100044.78
2023-04-15T22:41:05.195Z,100032.06
2023-04-15T22:44:08.691Z,100032.00
2023-04-15T22:47:11.975Z,100046.75
2023-04-15T22:50:15.022Z,100050.97
2023-04-15T22:53:18.434Z,100052.94
2023-04-15T22:56:23.044Z,100052.22
2023-04-15T22:59:26.202Z,100062.25
2023-04-15T23:02:29.783Z,100064.56
2023-04-15T23:05:32.918Z,100068.09
2023-04-15T23:08:37.110Z,100071.94
2023-04-15T23:11:40.195Z,100063.78
2023-04-15T23:14:43.621Z,100071.47
2023-04-15T23:17:46.861Z,100073.78
2023-04-15T23:20:50.083Z,100081.88
2023-04-15T23:23:53.234Z,100084.59
2023-04-15T23:26:57.560Z,100076.81
2023-04-15T23:30:00.864Z,100075.28
2023-04-15T23:33:04.674Z,100086.09
2023-04-15T23:36:08.094Z,100085.25
2023-04-15T23:39:11.846Z,100081.38
2023-04-15T23:42:14.940Z,100089.06
2023-04-15T23:45:18.951Z,100101.06
2023-04-15T23:48:23.766Z,100091.06
2023-04-15T23:51:27.001Z,100093.75
2023-04-15T23:54:30.181Z,100092.22
2023-04-15T23:57:33.263Z,100087.13
